Time;durP1;ratioP1;P1;durP2;ratioP2;P2;SDS_P1;SDS_P2;PMS_P1;PMS_P2;Temp;Humidity;BMP_temperature;BMP_pressure;BME280_temperature;BME280_humidity;BME280_pressure;Samples;Min_cycle;Max_cycle;Signal;HPM_P1;HPM_P2
2022/08/19 00:01:41;;;;;;;15.43;7.87;;;;;;;30.28;35.57;98169.28;4503011;31;20088;-84
2022/08/19 00:04:08;;;;;;;13.77;8.05;;;;;;;30.26;35.63;98171.41;4502472;31;20092;-83
2022/08/19 00:06:36;;;;;;;13.27;7.60;;;;;;;30.23;35.70;98166.41;4488759;31;20088;-83
2022/08/19 00:09:02;;;;;;;;;;;;;;;30.11;35.87;98171.75;4503422;31;20461;-83
2022/08/19 00:11:28;;;;;;;14.55;7.78;;;;;;;30.29;35.65;98174.50;4503283;31;19998;-83
2022/08/19 00:13:54;;;;;;;13.10;7.45;;;;;;;30.18;35.85;98164.37;4503129;31;20344;-85
2022/08/19 00:16:20;;;;;;;13.50;7.75;;;;;;;30.17;35.79;98165.41;4503197;31;20155;-86
2022/08/19 00:18:46;;;;;;;13.82;7.05;;;;;;;30.12;35.91;98163.38;4502988;31;20102;-86
2022/08/19 00:21:12;;;;;;;15.45;8.07;;;;;;;30.11;35.97;98161.72;4503131;31;20139;-87
2022/08/19 00:23:37;;;;;;;16.05;7.43;;;;;;;29.98;36.08;98161.88;4488755;31;20100;-86
2022/08/19 00:26:04;;;;;;;13.48;7.68;;;;;;;30.01;36.13;98160.59;4503089;31;20126;-86
2022/08/19 00:28:30;;;;;;;13.70;7.75;;;;;;;30.01;36.22;98160.59;4488800;31;20454;-87
2022/08/19 00:30:55;;;;;;;14.60;7.28;;;;;;;29.97;36.23;98169.16;4502909;31;20088;-86
2022/08/19 00:33:21;;;;;;;14.40;7.80;;;;;;;29.98;36.34;98164.59;4502986;31;20131;-86
2022/08/19 00:35:46;;;;;;;15.18;7.62;;;;;;;29.96;36.29;98161.25;4502921;31;20084;-86
2022/08/19 00:38:12;;;;;;;12.57;7.50;;;;;;;29.98;36.26;98159.97;4502982;31;20125;-87
2022/08/19 00:40:37;;;;;;;13.77;8.00;;;;;;;29.97;36.21;98162.91;4502701;31;20120;-87
2022/08/19 00:43:08;;;;;;;14.87;7.35;;;;;;;29.97;36.23;98162.91;4502930;31;20149;-85
2022/08/19 00:45:35;;;;;;;14.27;7.78;;;;;;;30.05;36.04;98164.50;4488565;31;20096;-85
2022/08/19 00:48:04;;;;;;;17.33;7.50;;;;;;;30.02;35.95;98164.94;4502851;31;20088;-84
2022/08/19 00:50:29;;;;;;;14.02;7.35;;;;;;;30.04;36.00;98163.69;4502958;31;20176;-85
2022/08/19 00:52:55;;;;;;;12.57;7.32;;;;;;;29.96;36.15;98156.66;4502777;31;20373;-87
2022/08/19 00:55:24;;;;;;;14.23;7.35;;;;;;;29.94;36.18;98147.91;4488469;31;20088;-85
2022/08/19 00:57:59;;;;;;;13.60;8.07;;;;;;;29.84;36.34;98153.00;4503030;31;20110;-86
2022/08/19 01:00:26;;;;;;;13.07;7.30;;;;;;;29.93;36.16;98156.28;4502780;31;20103;-84
2022/08/19 01:02:53;;;;;;;18.60;8.30;;;;;;;29.87;36.22;98147.13;4502782;31;20140;-84
2022/08/19 01:05:24;;;;;;;14.70;7.32;;;;;;;29.88;36.23;98156.09;4502773;31;20131;-84
2022/08/19 01:07:50;;;;;;;14.57;7.75;;;;;;;29.85;36.29;98153.84;4488478;31;20510;-85
2022/08/19 01:10:19;;;;;;;15.43;7.87;;;;;;;29.81;36.42;98148.03;4502796;31;20127;-85
2022/08/19 01:12:46;;;;;;;15.15;7.78;;;;;;;29.82;36.45;98146.16;4502708;31;20481;-85
2022/08/19 01:15:12;;;;;;;;;;;;;;;29.81;36.50;98158.06;4502497;31;20150;-85
2022/08/19 01:17:39;;;;;;;14.65;7.53;;;;;;;29.91;36.30;98153.78;4488231;31;19987;-84
2022/08/19 01:20:07;;;;;;;;;;;;;;;29.87;36.39;98147.13;4502864;31;20484;-84
2022/08/19 01:22:39;;;;;;;14.77;7.57;;;;;;;29.88;36.27;98146.09;4488629;31;20006;-85
2022/08/19 01:25:04;;;;;;;13.43;7.85;;;;;;;29.85;36.37;98145.72;4488145;31;20126;-85
2022/08/19 01:27:42;;;;;;;14.25;7.80;;;;;;;29.74;36.52;98136.41;4502478;31;20359;-85
2022/08/19 01:30:09;;;;;;;14.10;7.80;;;;;;;29.75;36.47;98140.78;4488075;31;20144;-85
2022/08/19 01:32:34;;;;;;;14.10;7.80;;;;;;;29.73;36.52;98142.91;4488015;31;20158;-85
2022/08/19 01:35:02;;;;;;;12.68;7.47;;;;;;;29.71;36.60;98140.38;4488038;31;20084;-85
2022/08/19 01:37:27;;;;;;;12.65;8.07;;;;;;;29.76;36.52;98139.72;4502373;31;20161;-85
2022/08/19 01:39:53;;;;;;;13.00;7.75;;;;;;;29.71;36.65;98132.22;4502113;31;20119;-85
2022/08/19 01:42:19;;;;;;;14.25;7.70;;;;;;;29.69;36.68;98128.91;4487830;31;20157;-85
2022/08/19 01:44:45;;;;;;;14.20;8.05;;;;;;;29.67;36.76;98136.44;4502292;31;20118;-85
2022/08/19 01:47:10;;;;;;;13.32;8.10;;;;;;;29.64;36.87;98128.72;4502094;31;20084;-84
2022/08/19 01:49:36;;;;;;;14.73;7.65;;;;;;;29.66;36.87;98121.19;4502236;31;20257;-85
2022/08/19 01:52:03;;;;;;;13.40;8.55;;;;;;;29.63;36.82;98118.09;4487892;31;20185;-84
2022/08/19 01:54:29;;;;;;;14.90;7.93;;;;;;;29.63;36.87;98113.50;4502075;31;20092;-85
2022/08/19 01:57:06;;;;;;;13.57;7.87;;;;;;;29.63;36.87;98104.53;4502078;31;20106;-85
2022/08/19 01:59:32;;;;;;;16.37;7.57;;;;;;;29.64;36.80;98108.91;4501920;31;20092;-84
2022/08/19 02:01:57;;;;;;;13.75;7.60;;;;;;;29.58;37.01;98103.31;4501995;31;20396;-84
2022/08/19 02:04:25;;;;;;;15.18;8.15;;;;;;;29.54;37.00;98106.72;4501883;31;20081;-84
2022/08/19 02:06:50;;;;;;;;;;;;;;;29.61;36.82;98107.47;4502279;31;20148;-84
2022/08/19 02:09:16;;;;;;;13.18;8.05;;;;;;;29.66;36.76;98098.66;4501908;31;19976;-84
2022/08/19 02:11:42;;;;;;;15.80;8.10;;;;;;;29.54;36.78;98098.56;4501801;31;20100;-84
2022/08/19 02:14:08;;;;;;;14.80;8.05;;;;;;;29.50;36.91;98091.94;4487433;31;20152;-84
2022/08/19 02:16:35;;;;;;;14.73;7.80;;;;;;;29.49;37.00;98096.50;4487466;31;20084;-85
2022/08/19 02:19:00;;;;;;;16.98;8.90;;;;;;;29.43;37.26;98096.56;4501685;31;20119;-84
2022/08/19 02:21:26;;;;;;;13.95;8.63;;;;;;;29.43;37.34;98102.81;4501684;31;20362;-84
2022/08/19 02:23:52;;;;;;;15.63;7.87;;;;;;;29.42;37.30;98103.91;4501667;31;20514;-84
2022/08/19 02:26:19;;;;;;;13.40;8.10;;;;;;;29.45;37.22;98103.44;4488136;31;20091;-84
2022/08/19 02:28:44;;;;;;;14.48;8.30;;;;;;;29.40;37.40;98092.44;4503964;31;20591;-84
2022/08/19 02:31:12;;;;;;;17.85;8.43;;;;;;;29.38;37.44;98089.94;4489203;31;20104;-84
2022/08/19 02:33:37;;;;;;;15.10;7.78;;;;;;;29.34;37.49;98082.44;4504146;31;20096;-84
2022/08/19 02:36:05;;;;;;;14.25;7.93;;;;;;;29.37;37.49;98090.97;4503829;31;20083;-84
2022/08/19 02:38:30;;;;;;;15.82;8.02;;;;;;;29.30;37.77;98095.63;4503754;31;20148;-84
2022/08/19 02:40:59;;;;;;;15.40;8.60;;;;;;;29.10;38.16;98105.78;4503630;31;20114;-84
2022/08/19 02:43:27;;;;;;;14.27;7.97;;;;;;;29.10;38.31;98108.50;4489560;31;20168;-82
2022/08/19 02:45:53;;;;;;;14.70;7.87;;;;;;;29.09;38.43;98099.53;4504033;31;20107;-84
2022/08/19 02:48:20;;;;;;;14.48;8.20;;;;;;;29.06;38.43;98099.97;4503650;31;20115;-84
2022/08/19 02:50:46;;;;;;;13.70;8.50;;;;;;;29.05;38.57;98103.69;4503746;31;20087;-84
2022/08/19 02:53:12;;;;;;;15.18;7.97;;;;;;;28.95;38.68;98114.22;4503741;31;20117;-85
2022/08/19 02:55:47;;;;;;;14.98;8.15;;;;;;;28.98;38.58;98105.66;4489143;31;20440;-86
2022/08/19 02:58:13;;;;;;;13.20;8.25;;;;;;;28.95;38.57;98112.31;4503765;31;20122;-85
2022/08/19 03:00:47;;;;;;;14.65;8.38;;;;;;;28.93;38.66;98119.84;4489223;31;20115;-85
2022/08/19 03:03:13;;;;;;;14.75;7.87;;;;;;;28.81;38.90;98125.13;4504053;31;20080;-85
2022/08/19 03:05:39;;;;;;;13.85;8.38;;;;;;;28.86;38.77;98129.06;4503741;31;20071;-85
2022/08/19 03:08:05;;;;;;;15.75;8.73;;;;;;;28.83;38.83;98119.50;4503816;31;20108;-85
2022/08/19 03:10:32;;;;;;;13.90;8.02;;;;;;;28.77;39.03;98115.78;4489647;31;20104;-85
2022/08/19 03:12:58;;;;;;;14.38;8.27;;;;;;;28.80;39.04;98125.34;4503617;31;20084;-85
2022/08/19 03:15:23;;;;;;;13.88;8.00;;;;;;;28.79;39.03;98135.38;4489148;31;20110;-84
2022/08/19 03:17:48;;;;;;;13.95;7.80;;;;;;;28.80;38.95;98131.63;4503560;31;20095;-84
2022/08/19 03:20:14;;;;;;;14.00;8.18;;;;;;;28.76;39.09;98138.53;4489387;31;20132;-85
2022/08/19 03:22:39;;;;;;;13.25;8.02;;;;;;;28.51;39.53;98142.97;4503723;31;20136;-84
2022/08/19 03:25:05;;;;;;;13.20;8.23;;;;;;;28.54;39.59;98148.84;4503561;31;20153;-84
2022/08/19 03:27:30;;;;;;;15.15;8.30;;;;;;;28.54;39.57;98146.12;4503669;31;20108;-84
2022/08/19 03:29:56;;;;;;;13.55;7.68;;;;;;;28.52;39.62;98141.97;4503695;31;20394;-84
2022/08/19 03:32:22;;;;;;;13.98;8.02;;;;;;;28.57;39.52;98140.28;4503682;31;20111;-84
2022/08/19 03:34:47;;;;;;;14.25;8.00;;;;;;;28.57;39.55;98151.13;4503319;31;20388;-84
2022/08/19 03:37:13;;;;;;;16.27;8.55;;;;;;;28.48;39.82;98146.12;4488752;31;20151;-84
2022/08/19 03:39:41;;;;;;;16.12;8.73;;;;;;;28.46;39.64;98148.22;4503086;31;20140;-84
2022/08/19 03:42:07;;;;;;;17.05;8.43;;;;;;;28.48;39.61;98143.44;4488974;31;20091;-85
2022/08/19 03:44:33;;;;;;;14.80;8.30;;;;;;;28.52;39.51;98144.69;4503280;31;20390;-85
2022/08/19 03:46:59;;;;;;;14.02;8.43;;;;;;;28.57;39.59;98143.00;4503303;31;20149;-83
2022/08/19 03:49:29;;;;;;;14.60;8.37;;;;;;;28.49;39.69;98151.34;4503194;31;20087;-86
2022/08/19 03:52:00;;;;;;;13.90;7.43;;;;;;;28.54;39.44;98156.97;4488942;31;20219;-85
2022/08/19 03:54:25;;;;;;;15.05;7.78;;;;;;;28.55;39.60;98155.06;4503263;31;20073;-85
2022/08/19 03:56:53;;;;;;;13.98;8.23;;;;;;;28.59;39.60;98156.34;4503387;31;20092;-85
2022/08/19 03:59:37;;;;;;;14.40;8.13;;;;;;;28.64;39.73;98164.63;4503142;31;20104;-84
2022/08/19 04:02:09;;;;;;;13.85;8.45;;;;;;;28.69;39.65;98164.84;4488944;31;20089;-85
2022/08/19 04:04:36;;;;;;;15.73;8.35;;;;;;;28.68;39.57;98152.31;4503126;31;20128;-84
2022/08/19 04:07:02;;;;;;;;;;;;;;;28.71;39.52;98151.88;4489182;31;20108;-84
2022/08/19 04:09:27;;;;;;;12.98;8.00;;;;;;;28.78;39.35;98160.84;4503159;31;19975;-83
2022/08/19 04:11:55;;;;;;;14.30;8.02;;;;;;;28.74;39.41;98164.16;4503119;31;20089;-84
2022/08/19 04:14:21;;;;;;;;;;;;;;;28.63;39.44;98174.66;4503510;31;20087;-84
2022/08/19 04:16:47;;;;;;;14.68;8.82;;;;;;;28.78;39.06;98176.25;4503089;31;20282;-87
2022/08/19 04:19:14;;;;;;;14.50;8.65;;;;;;;28.63;39.21;98174.66;4502970;31;20469;-85
2022/08/19 04:21:39;;;;;;;15.27;8.60;;;;;;;28.51;39.23;98184.50;4503081;31;20152;-85
2022/08/19 04:24:06;;;;;;;13.57;8.30;;;;;;;28.66;39.05;98181.50;4502953;31;20061;-85
2022/08/19 04:26:35;;;;;;;13.07;7.70;;;;;;;28.72;39.24;98175.22;4503103;31;20482;-88
2022/08/19 04:29:03;;;;;;;12.77;8.07;;;;;;;28.80;38.88;98175.00;4488629;31;20406;-86
2022/08/19 04:31:31;;;;;;;15.15;8.60;;;;;;;28.72;38.80;98174.41;4494381;31;20084;-85
2022/08/19 04:33:58;;;;;;;13.98;8.23;;;;;;;28.51;39.57;98187.22;4487240;31;20111;-86
2022/08/19 04:36:27;;;;;;;14.95;8.25;;;;;;;28.82;39.28;98178.31;4487220;31;20088;-86
2022/08/19 04:39:06;;;;;;;16.60;8.60;;;;;;;28.91;39.23;98178.87;4486965;32;20084;-86
2022/08/19 04:44:19;;;;;;;13.82;7.43;;;;;;;29.12;38.54;98190.47;4487155;32;20102;-86
2022/08/19 04:46:47;;;;;;;13.48;7.82;;;;;;;29.20;38.56;98188.34;4487175;31;20092;-87
2022/08/19 04:49:13;;;;;;;13.30;7.55;;;;;;;29.38;38.45;98182.19;4486740;31;20152;-87
2022/08/19 04:51:42;;;;;;;14.52;8.45;;;;;;;29.47;38.28;98177.31;4487371;31;20085;-85
2022/08/19 04:54:08;;;;;;;12.63;7.45;;;;;;;29.56;38.18;98177.88;4487329;31;20106;-84
2022/08/19 04:56:33;;;;;;;16.60;7.82;;;;;;;29.41;38.17;98180.91;4487019;31;20089;-85
2022/08/19 04:59:03;;;;;;;12.90;7.47;;;;;;;29.47;37.61;98179.19;4486970;31;20088;-85
2022/08/19 05:01:31;;;;;;;13.73;7.55;;;;;;;29.56;38.18;98186.03;4487012;31;20085;-85
2022/08/19 05:03:58;;;;;;;14.30;8.00;;;;;;;29.49;38.23;98188.78;4486979;32;20143;-84
2022/08/19 05:06:25;;;;;;;14.18;7.62;;;;;;;29.55;37.68;98187.06;4489139;31;20100;-87
2022/08/19 05:08:50;;;;;;;16.58;7.45;;;;;;;29.54;37.35;98190.84;4487292;31;20101;-87
2022/08/19 05:11:19;;;;;;;13.52;7.60;;;;;;;29.71;37.14;98186.53;4485610;32;20092;-86
2022/08/19 05:13:47;;;;;;;14.57;7.60;;;;;;;29.71;37.49;98186.53;4486951;31;20170;-86
2022/08/19 05:16:12;;;;;;;;;;;;;;;29.90;37.15;98187.44;4485991;32;20132;-86
2022/08/19 05:24:08;;;;;;;16.77;7.87;;;;;;;30.39;36.44;98187.59;4486743;32;20103;-85
2022/08/19 05:26:35;;;;;;;13.32;7.22;;;;;;;30.30;35.98;98184.28;4491164;31;20139;-84
2022/08/19 05:29:01;;;;;;;13.48;7.57;;;;;;;30.57;35.95;98190.28;4494089;31;20103;-86
2022/08/19 05:31:26;;;;;;;12.20;6.95;;;;;;;30.64;35.43;98190.22;4478787;31;20083;-85
2022/08/19 05:33:52;;;;;;;15.18;7.05;;;;;;;30.78;35.14;98186.25;4494404;31;20423;-84
2022/08/19 05:36:19;;;;;;;14.30;6.78;;;;;;;30.84;35.13;98184.53;4500956;31;20119;-84
2022/08/19 05:38:47;;;;;;;12.25;6.53;;;;;;;30.89;35.07;98184.69;4500228;31;20159;-85
2022/08/19 05:41:13;;;;;;;15.40;6.90;;;;;;;30.99;34.53;98188.75;4502264;31;20096;-85
2022/08/19 05:43:39;;;;;;;14.70;7.05;;;;;;;31.13;34.25;98199.22;4478869;31;20081;-84
2022/08/19 05:46:06;;;;;;;13.45;7.60;;;;;;;31.28;34.13;98189.81;4480201;31;20112;-85
2022/08/19 05:48:35;;;;;;;14.10;6.55;;;;;;;30.61;35.46;98193.38;4487847;31;20127;-83
2022/08/19 05:51:08;;;;;;;12.88;7.37;;;;;;;31.17;34.67;98189.53;4478263;31;20114;-84
2022/08/19 05:53:36;;;;;;;13.38;6.72;;;;;;;31.24;34.18;98194.87;4474102;32;20155;-85
2022/08/19 05:56:07;;;;;;;15.65;7.35;;;;;;;31.34;34.19;98184.25;4471914;32;20139;-85
2022/08/19 05:58:33;;;;;;;13.55;6.80;;;;;;;31.50;33.92;98188.22;4486250;32;20119;-87
2022/08/19 06:01:04;;;;;;;12.23;7.10;;;;;;;31.70;33.44;98187.91;4478371;32;20097;-82
2022/08/19 06:03:30;;;;;;;13.65;6.87;;;;;;;31.85;32.84;98192.91;4459094;32;20486;-84
2022/08/19 06:05:59;;;;;;;13.65;6.95;;;;;;;31.93;33.18;98194.41;4484123;31;20130;-85
2022/08/19 06:08:25;;;;;;;12.25;6.60;;;;;;;32.00;32.95;98189.69;4470188;32;20156;-85
2022/08/19 06:10:50;;;;;;;13.98;6.62;;;;;;;32.11;32.73;98188.91;4486101;32;20115;-81
2022/08/19 06:13:15;;;;;;;12.52;6.87;;;;;;;32.24;32.62;98182.38;4497726;31;20132;-82
2022/08/19 06:15:44;;;;;;;15.65;7.97;;;;;;;32.34;32.47;98187.22;4497910;31;20196;-82
2022/08/19 06:18:09;;;;;;;15.18;7.18;;;;;;;31.11;34.07;98190.44;4489379;31;20119;-84
2022/08/19 06:20:34;;;;;;;15.43;6.90;;;;;;;31.68;33.45;98192.75;4477706;31;20428;-82
2022/08/19 06:23:03;;;;;;;14.63;7.00;;;;;;;32.01;32.98;98195.97;4493317;31;20378;-81
2022/08/19 06:25:29;;;;;;;14.55;6.93;;;;;;;32.12;32.62;98192.44;4500223;31;20096;-81
2022/08/19 06:27:54;;;;;;;12.50;6.82;;;;;;;32.18;32.64;98186.06;4489581;31;20192;-82
2022/08/19 06:30:20;;;;;;;12.70;6.87;;;;;;;32.25;32.45;98180.47;4481212;31;20358;-79
2022/08/19 06:32:45;;;;;;;14.48;7.93;;;;;;;32.21;32.58;98174.66;4484040;31;20140;-88
2022/08/19 06:35:11;;;;;;;13.15;6.78;;;;;;;31.65;33.29;98178.78;4492537;31;20088;-89
2022/08/19 06:37:37;;;;;;;12.37;6.93;;;;;;;31.94;33.07;98177.84;4497441;31;20390;-88
2022/08/19 06:40:03;;;;;;;13.30;7.03;;;;;;;31.10;34.27;98183.38;4496500;31;20096;-87
2022/08/19 06:42:29;;;;;;;14.05;7.62;;;;;;;31.50;33.64;98177.31;4504028;31;20241;-86
2022/08/19 06:44:54;;;;;;;14.20;7.05;;;;;;;30.93;34.81;98185.91;4503860;31;20281;-85
2022/08/19 06:47:21;;;;;;;14.82;7.25;;;;;;;31.12;34.59;98180.41;4504065;31;20100;-88
2022/08/19 06:49:47;;;;;;;14.63;7.20;;;;;;;31.30;34.37;98174.91;4503959;31;20170;-87
2022/08/19 06:52:12;;;;;;;14.80;7.57;;;;;;;31.61;33.90;98172.16;4500056;31;20340;-86
2022/08/19 06:54:39;;;;;;;12.82;6.70;;;;;;;31.68;33.74;98172.84;4501902;31;20165;-87
2022/08/19 06:57:06;;;;;;;16.92;6.87;;;;;;;32.07;33.10;98176.81;4487742;31;20489;-84
2022/08/19 06:59:32;;;;;;;14.80;7.35;;;;;;;32.28;33.32;98172.66;4488136;31;20196;-84
2022/08/19 07:02:00;;;;;;;15.93;7.22;;;;;;;32.41;32.12;98185.16;4501375;31;20092;-84
2022/08/19 07:04:28;;;;;;;15.13;6.85;;;;;;;32.67;32.23;98193.94;4485260;32;20120;-85
2022/08/19 07:07:07;;;;;;;12.90;7.03;;;;;;;32.67;32.50;98192.03;4498759;31;20088;-86
2022/08/19 07:09:33;;;;;;;13.95;6.82;;;;;;;32.65;32.00;98196.09;4503739;31;20088;-85
2022/08/19 07:11:58;;;;;;;12.90;6.97;;;;;;;32.72;31.93;98205.78;4503189;31;20109;-85
2022/08/19 07:14:26;;;;;;;13.77;7.00;;;;;;;32.69;31.99;98211.72;4489213;31;20132;-85
2022/08/19 07:16:54;;;;;;;14.02;6.97;;;;;;;32.84;32.04;98210.37;4489501;31;20253;-85
2022/08/19 07:19:21;;;;;;;16.83;6.80;;;;;;;32.98;31.57;98200.81;4503703;31;20088;-85
2022/08/19 07:21:48;;;;;;;13.23;6.55;;;;;;;32.90;31.76;98210.22;4503703;31;20423;-85
2022/08/19 07:24:13;;;;;;;12.55;6.57;;;;;;;32.97;31.76;98210.06;4503754;31;20134;-85
2022/08/19 07:26:41;;;;;;;17.40;7.05;;;;;;;32.66;32.35;98209.44;4489296;31;20092;-85
2022/08/19 07:29:07;;;;;;;14.07;6.60;;;;;;;32.94;31.68;98212.47;4503319;31;20922;-85
2022/08/19 07:31:36;;;;;;;13.50;6.68;;;;;;;33.13;31.65;98204.94;4503213;31;20226;-85
2022/08/19 07:34:06;;;;;;;15.13;7.05;;;;;;;33.21;31.34;98202.66;4476345;31;20451;-85
2022/08/19 07:36:33;;;;;;;14.32;6.87;;;;;;;33.40;31.13;98213.34;4503312;31;20253;-85
2022/08/19 07:39:00;;;;;;;14.73;7.70;;;;;;;33.61;30.92;98204.47;4488816;31;20080;-84
2022/08/19 07:41:31;;;;;;;12.10;6.60;;;;;;;33.33;31.52;98199.88;4489135;31;20084;-85
2022/08/19 07:43:57;;;;;;;12.85;7.10;;;;;;;33.26;31.34;98196.44;4488816;31;20455;-85
2022/08/19 07:46:22;;;;;;;12.57;6.80;;;;;;;33.27;31.20;98200.84;4503463;31;20093;-85
2022/08/19 07:48:49;;;;;;;12.85;6.65;;;;;;;33.41;31.15;98202.19;4488715;31;20177;-85
2022/08/19 07:51:18;;;;;;;;;;;;;;;33.59;30.97;98192.09;4503685;31;20077;-85
2022/08/19 07:53:45;;;;;;;14.25;6.75;;;;;;;33.95;30.59;98200.91;4503343;31;19998;-85
2022/08/19 07:56:12;;;;;;;14.13;6.75;;;;;;;33.99;30.32;98191.12;4503257;31;20452;-85
2022/08/19 07:58:39;;;;;;;12.68;6.70;;;;;;;34.01;30.09;98194.44;4489125;31;20517;-85
2022/08/19 08:01:07;;;;;;;13.95;7.03;;;;;;;34.10;29.87;98200.31;4503474;31;20114;-85
2022/08/19 08:09:20;;;;;;;15.05;7.00;;;;;;;34.42;29.71;98195.03;4503289;31;20118;-85
2022/08/19 08:11:52;;;;;;;12.45;6.78;;;;;;;34.35;29.54;98195.25;4503165;31;20400;-85
2022/08/19 08:14:24;;;;;;;14.18;7.07;;;;;;;34.49;29.13;98195.69;4503021;31;20473;-84
2022/08/19 08:16:50;;;;;;;13.02;6.93;;;;;;;34.54;29.37;98194.91;4503595;31;20092;-85
2022/08/19 08:19:18;;;;;;;12.88;6.90;;;;;;;34.58;28.86;98202.37;4503181;31;20106;-85
2022/08/19 08:21:43;;;;;;;13.55;6.07;;;;;;;34.64;28.89;98208.75;4503201;31;20106;-85
2022/08/19 08:24:09;;;;;;;12.80;6.43;;;;;;;34.00;29.61;98212.75;4487637;31;20108;-85
2022/08/19 08:26:35;;;;;;;13.05;6.68;;;;;;;34.45;28.82;98209.03;4488727;31;20095;-85
2022/08/19 08:29:01;;;;;;;12.00;6.93;;;;;;;34.56;27.71;98206.44;4503050;31;20131;-85
2022/08/19 08:31:27;;;;;;;11.73;6.05;;;;;;;34.53;27.87;98205.03;4488547;31;20096;-85
2022/08/19 08:33:52;;;;;;;12.90;6.45;;;;;;;34.47;27.71;98203.31;4503273;31;20100;-85
2022/08/19 08:36:18;;;;;;;13.27;5.87;;;;;;;34.44;27.88;98204.66;4503320;31;20091;-85
2022/08/19 08:38:47;;;;;;;12.73;6.15;;;;;;;34.59;27.86;98198.53;4503137;31;20136;-85
2022/08/19 08:41:41;;;;;;;11.73;6.35;;;;;;;34.82;27.41;98200.22;4485749;32;20088;-85
2022/08/19 08:44:14;;;;;;;13.98;5.95;;;;;;;34.94;27.83;98197.34;4487130;31;20127;-84
2022/08/19 08:46:45;;;;;;;11.57;6.32;;;;;;;34.91;26.58;98195.16;4487327;31;20093;-85
2022/08/19 08:49:28;;;;;;;13.32;6.55;;;;;;;34.90;27.20;98177.06;4485987;32;20088;-85
2022/08/19 08:52:04;;;;;;;12.70;6.00;;;;;;;35.12;26.54;98166.09;4487172;31;20076;-84
2022/08/19 08:54:41;;;;;;;13.13;5.97;;;;;;;34.86;27.23;98167.72;4487101;31;20123;-85
2022/08/19 08:57:11;;;;;;;14.38;6.32;;;;;;;34.89;26.90;98169.94;4485842;32;20165;-85
2022/08/19 08:59:40;;;;;;;13.18;5.95;;;;;;;35.05;26.30;98171.75;4486929;32;20088;-84
2022/08/19 09:02:06;;;;;;;14.43;6.53;;;;;;;35.15;26.35;98179.22;4485778;32;20092;-85
2022/08/19 09:04:31;;;;;;;13.45;6.03;;;;;;;35.08;26.39;98180.53;4487013;31;20116;-85
2022/08/19 09:07:21;;;;;;;13.60;6.53;;;;;;;35.07;26.63;98171.50;4486886;31;20142;-84
2022/08/19 09:09:50;;;;;;;12.15;6.72;;;;;;;35.14;26.15;98169.38;4487187;31;20084;-84
2022/08/19 09:12:38;;;;;;;11.52;5.95;;;;;;;35.36;25.96;98172.06;4486031;32;20091;-84
2022/08/19 09:15:09;;;;;;;12.82;5.93;;;;;;;35.39;25.82;98168.81;4485797;32;20123;-84
2022/08/19 09:17:35;;;;;;;11.63;6.30;;;;;;;35.46;25.16;98181.47;4485748;32;20134;-84
2022/08/19 09:20:07;;;;;;;10.83;6.07;;;;;;;35.30;25.08;98164.91;4486728;31;20092;-85
2022/08/19 09:22:33;;;;;;;12.10;6.03;;;;;;;35.51;25.17;98174.13;4486888;31;20068;-85
2022/08/19 09:24:59;;;;;;;12.23;6.00;;;;;;;35.55;25.28;98167.03;4485624;32;20105;-85
2022/08/19 09:27:26;;;;;;;12.33;5.73;;;;;;;35.50;25.25;98166.16;4486848;31;20386;-85
2022/08/19 09:29:53;;;;;;;11.63;5.43;;;;;;;35.48;25.35;98160.12;4486726;31;20228;-85
2022/08/19 09:32:19;;;;;;;10.98;5.72;;;;;;;35.51;25.44;98154.13;4486752;31;20422;-85
2022/08/19 09:34:45;;;;;;;11.93;5.50;;;;;;;35.49;25.49;98154.41;4485179;32;20105;-85
2022/08/19 09:37:10;;;;;;;13.10;5.78;;;;;;;35.54;25.11;98154.41;4485658;32;20143;-85
2022/08/19 09:39:38;;;;;;;12.73;5.73;;;;;;;35.57;25.05;98145.69;4487296;31;20088;-85
2022/08/19 09:42:05;;;;;;;11.65;5.87;;;;;;;35.57;25.07;98147.59;4487971;31;20106;-85
2022/08/19 09:44:30;;;;;;;12.75;5.93;;;;;;;35.64;24.81;98153.69;4488401;31;20162;-85
2022/08/19 09:46:56;;;;;;;12.68;6.43;;;;;;;35.33;25.32;98152.59;4502439;31;20084;-85
2022/08/19 09:49:21;;;;;;;10.07;5.40;;;;;;;35.32;25.37;98150.97;4475021;31;20343;-85
2022/08/19 09:51:56;;;;;;;9.82;5.45;;;;;;;35.28;25.77;98141.63;4502162;31;20080;-85
2022/08/19 09:54:21;;;;;;;13.93;5.82;;;;;;;35.44;25.36;98138.72;4488284;31;20104;-85
2022/08/19 09:56:48;;;;;;;13.10;6.03;;;;;;;35.44;25.28;98144.19;4502219;31;20135;-85
2022/08/19 09:59:14;;;;;;;12.95;5.70;;;;;;;35.54;25.16;98118.81;4487813;31;20829;-85
2022/08/19 10:01:39;;;;;;;13.10;6.23;;;;;;;35.54;24.86;98123.47;4487736;31;20088;-85
2022/08/19 10:04:10;;;;;;;12.45;5.75;;;;;;;35.58;24.88;98116.38;4501889;31;20127;-85
2022/08/19 10:06:39;;;;;;;10.65;5.47;;;;;;;35.01;25.54;98126.00;4488467;31;20136;-85
2022/08/19 10:09:07;;;;;;;11.18;5.18;;;;;;;35.53;24.87;98110.87;4501919;31;20147;-85
2022/08/19 10:11:34;;;;;;;13.00;5.97;;;;;;;35.75;24.70;98129.94;4501898;31;20144;-85
2022/08/19 10:14:00;;;;;;;13.10;5.50;;;;;;;35.69;24.36;98126.34;4487664;31;20567;-85
2022/08/19 10:16:26;;;;;;;11.68;5.30;;;;;;;35.74;24.29;98122.84;4501860;31;20140;-85
2022/08/19 10:18:52;;;;;;;11.53;5.53;;;;;;;35.68;24.58;98121.97;4501808;31;20143;-85
2022/08/19 10:21:29;;;;;;;11.32;5.65;;;;;;;35.82;23.92;98119.59;4501809;31;20139;-85
2022/08/19 10:23:57;;;;;;;11.90;5.37;;;;;;;35.86;24.12;98119.88;4501836;31;20523;-85
2022/08/19 10:26:26;;;;;;;12.77;5.70;;;;;;;35.80;24.09;98110.81;4501649;31;20133;-85
2022/08/19 10:28:52;;;;;;;10.55;5.37;;;;;;;35.82;24.16;98117.66;4487233;31;20096;-85
2022/08/19 10:31:21;;;;;;;11.32;5.55;;;;;;;35.93;24.13;98102.13;4487223;31;20156;-85
2022/08/19 10:33:47;;;;;;;11.73;5.50;;;;;;;35.82;23.98;98116.84;4501577;31;20156;-85
2022/08/19 10:36:17;;;;;;;9.95;4.90;;;;;;;35.73;24.19;98115.69;4487392;31;20149;-85
2022/08/19 10:38:43;;;;;;;10.80;5.30;;;;;;;35.91;24.20;98117.16;4501382;31;20110;-85
2022/08/19 10:41:15;;;;;;;12.32;5.70;;;;;;;35.83;24.07;98122.06;4486843;31;20107;-85
2022/08/19 10:43:41;;;;;;;12.98;5.82;;;;;;;35.74;24.26;98123.66;4501449;31;20569;-85
2022/08/19 10:46:09;;;;;;;13.70;5.80;;;;;;;35.73;24.04;98115.69;4501376;31;20155;-85
2022/08/19 10:48:35;;;;;;;10.65;5.55;;;;;;;35.66;24.48;98112.31;4503596;31;20105;-84
2022/08/19 10:53:45;;;;;;;10.38;5.20;;;;;;;35.89;24.33;98111.97;4503874;31;20165;-84
2022/08/19 10:58:56;;;;;;;11.68;5.22;;;;;;;35.97;24.16;98121.59;4503876;31;20542;-85
2022/08/19 11:01:21;;;;;;;10.02;5.00;;;;;;;35.98;24.13;98115.84;4503675;31;20092;-84
2022/08/19 11:03:47;;;;;;;14.20;5.50;;;;;;;36.12;23.91;98118.09;4503709;31;20131;-85
2022/08/19 11:06:12;;;;;;;11.27;5.00;;;;;;;36.09;23.91;98100.28;4503675;31;20380;-84
2022/08/19 11:08:38;;;;;;;12.27;5.33;;;;;;;36.19;23.96;98097.59;4503524;31;20112;-84
2022/08/19 11:11:05;;;;;;;11.50;5.70;;;;;;;36.13;24.08;98097.81;4503609;31;20083;-84
2022/08/19 11:13:34;;;;;;;12.25;5.40;;;;;;;36.22;24.03;98102.56;4503637;31;20154;-85
2022/08/19 11:16:13;;;;;;;13.45;6.60;;;;;;;36.27;23.63;98099.00;4503599;31;20163;-85
2022/08/19 11:18:48;;;;;;;13.95;6.07;;;;;;;36.03;23.77;98109.56;4489343;31;20099;-85
2022/08/19 11:21:23;;;;;;;13.98;6.12;;;;;;;36.21;23.58;98113.78;4503630;31;20088;-84
2022/08/19 11:23:51;;;;;;;12.52;5.60;;;;;;;36.17;23.68;98108.03;4503543;31;20764;-85
2022/08/19 11:26:18;;;;;;;12.35;5.72;;;;;;;36.35;23.48;98103.16;4489014;31;20538;-85
2022/08/19 11:28:43;;;;;;;13.80;6.43;;;;;;;36.39;23.58;98115.22;4503474;31;20155;-85
2022/08/19 11:31:19;;;;;;;13.00;7.47;;;;;;;36.50;23.02;98102.41;4503455;31;20385;-85
2022/08/19 11:33:45;;;;;;;12.43;7.18;;;;;;;36.46;23.28;98102.09;4489262;31;20116;-85
2022/08/19 11:36:11;;;;;;;13.62;8.55;;;;;;;36.63;23.14;98098.31;4503500;31;20096;-85
2022/08/19 11:38:37;;;;;;;12.40;7.80;;;;;;;36.47;22.82;98095.53;4503670;31;20107;-85
2022/08/19 11:41:06;;;;;;;12.63;7.07;;;;;;;36.64;22.85;98102.69;4503364;31;20103;-85
2022/08/19 11:43:32;;;;;;;12.80;6.75;;;;;;;36.73;22.59;98099.19;4503536;31;20118;-84
2022/08/19 11:45:57;;;;;;;11.80;6.23;;;;;;;36.68;22.73;98090.94;4503343;31;20080;-84
2022/08/19 11:48:24;;;;;;;13.17;6.73;;;;;;;36.74;22.58;98100.00;4503282;31;20110;-84